createdAt,value
2022-10-13T00:00:03.558Z,-11209.41
2022-10-13T00:03:10.125Z,-11208.00
2022-10-13T00:06:18.870Z,-11208.00
2022-10-13T00:09:26.582Z,-11201.25
2022-10-13T00:12:35.994Z,-11208.28
2022-10-13T00:15:44.541Z,-11196.19
2022-10-13T00:18:51.530Z,-11206.88
2022-10-13T00:21:57.934Z,-11204.63
2022-10-13T00:25:06.365Z,-11192.81
2022-10-13T00:28:13.331Z,-11195.63
2022-10-13T00:31:21.197Z,-11186.34
2022-10-13T00:34:27.415Z,-11197.03
2022-10-13T00:37:33.792Z,-11205.19
2022-10-13T00:40:48.948Z,-11205.75
2022-10-13T00:43:58.497Z,-11209.00
2022-10-13T00:47:04.804Z,-11206.59
2022-10-13T00:50:15.822Z,-11212.09
2022-10-13T00:53:24.406Z,-11208.00
2022-10-13T00:56:32.125Z,-11197.59
2022-10-13T00:59:40.462Z,-11191.28
2022-10-13T01:02:46.948Z,-11188.88
2022-10-13T01:05:55.814Z,-11181.00
2022-10-13T01:09:01.871Z,-11188.47
2022-10-13T01:12:20.675Z,-11198.72
2022-10-13T01:15:33.105Z,-11194.50
2022-10-13T01:18:46.491Z,-11190.44
2022-10-13T01:22:03.247Z,-11182.56
2022-10-13T01:25:25.141Z,-11186.63
2022-10-13T01:28:51.117Z,-11191.97
2022-10-13T01:32:08.311Z,-11201.13
2022-10-13T01:35:20.031Z,-11199.56
2022-10-13T01:38:34.679Z,-11197.47
2022-10-13T01:41:44.124Z,-11195.63
2022-10-13T01:44:54.091Z,-11203.50
2022-10-13T01:48:04.362Z,-11208.28
2022-10-13T01:51:15.771Z,-11214.47
2022-10-13T01:54:22.240Z,-11216.16
2022-10-13T01:57:33.039Z,-11219.25
2022-10-13T02:00:45.065Z,-11212.22
2022-10-13T02:04:02.602Z,-11215.31
2022-10-13T02:07:17.410Z,-11214.63
2022-10-13T02:10:28.550Z,-11210.53
2022-10-13T02:13:38.225Z,-11211.94
2022-10-13T02:16:47.621Z,-11208.00
2022-10-13T02:19:56.780Z,-11208.00
2022-10-13T02:23:08.472Z,-11210.81
2022-10-13T02:26:15.613Z,-11215.19
2022-10-13T02:29:22.546Z,-11217.72
2022-10-13T02:32:28.988Z,-11213.63
2022-10-13T02:35:36.859Z,-11211.94
2022-10-13T02:38:42.916Z,-11213.34
2022-10-13T02:41:49.495Z,-11214.75
2022-10-13T02:44:55.788Z,-11217.84
2022-10-13T02:48:02.032Z,-11213.91
2022-10-13T02:51:09.732Z,-11207.16
2022-10-13T02:54:15.855Z,-11198.87
2022-10-13T02:57:22.274Z,-11197.31
2022-10-13T03:00:28.533Z,-11189.59
2022-10-13T03:03:34.606Z,-11197.31
2022-10-13T03:06:42.125Z,-11198.16
2022-10-13T03:09:48.118Z,-11200.69
2022-10-13T03:12:55.699Z,-11208.16
2022-10-13T03:16:01.664Z,-11209.13
2022-10-13T03:19:07.888Z,-11203.09
2022-10-13T03:22:15.675Z,-11205.63
2022-10-13T03:25:21.643Z,-11200.69
2022-10-13T03:28:27.960Z,-11196.63
2022-10-13T03:31:33.876Z,-11191.69
2022-10-13T03:34:40.288Z,-11179.31
2022-10-13T03:37:47.943Z,-11178.19
2022-10-13T03:40:54.235Z,-11186.06
2022-10-13T03:44:00.533Z,-11186.63
2022-10-13T03:47:07.157Z,-11194.78
2022-10-13T03:50:13.270Z,-11193.94
2022-10-13T03:53:21.176Z,-11191.97
2022-10-13T03:56:28.629Z,-11188.03
2022-10-13T03:59:36.974Z,-11190.84
2022-10-13T04:02:43.722Z,-11179.03
2022-10-13T04:05:49.786Z,-11182.84
2022-10-13T04:08:57.290Z,-11184.38
2022-10-13T04:12:03.262Z,-11181.84
2022-10-13T04:15:10.786Z,-11178.34
2022-10-13T04:18:16.957Z,-11179.59
2022-10-13T04:21:24.659Z,-11181.84
2022-10-13T04:24:32.315Z,-11179.59
2022-10-13T04:27:39.580Z,-11179.75
2022-10-13T04:30:49.271Z,-11184.09
2022-10-13T04:33:56.022Z,-11183.13
2022-10-13T04:37:01.949Z,-11180.44
2022-10-13T04:40:10.675Z,-11185.22
2022-10-13T04:43:16.614Z,-11187.91
2022-10-13T04:46:24.901Z,-11189.16
2022-10-13T04:49:32.083Z,-11187.34
2022-10-13T04:52:38.148Z,-11182.84
2022-10-13T04:55:45.885Z,-11186.91
2022-10-13T04:58:52.080Z,-11187.34
2022-10-13T05:01:58.059Z,-11181.84
2022-10-13T05:05:04.314Z,-11188.03
2022-10-13T05:08:10.644Z,-11189.72
2022-10-13T05:11:20.115Z,-11190.28
2022-10-13T05:14:26.792Z,-11195.63
2022-10-13T05:17:35.356Z,-11205.63
2022-10-13T05:20:41.604Z,-11193.09
2022-10-13T05:23:48.215Z,-11193.94
2022-10-13T05:26:55.945Z,-11198.16
2022-10-13T05:30:02.248Z,-11199.56
2022-10-13T05:33:09.354Z,-11204.34
2022-10-13T05:36:19.686Z,-11205.34
2022-10-13T05:39:26.161Z,-11206.31
2022-10-13T05:42:34.308Z,-11217.28
2022-10-13T05:45:42.050Z,-11209.41
2022-10-13T05:48:48.432Z,-11210.25
2022-10-13T05:51:58.726Z,-11210.97
2022-10-13T05:55:10.355Z,-11207.31
2022-10-13T05:58:18.466Z,-11197.47
2022-10-13T06:01:26.543Z,-11215.47
2022-10-13T06:04:37.547Z,-11203.78
2022-10-13T06:07:44.928Z,-11199.84
2022-10-13T06:10:51.063Z,-11211.81
2022-10-13T06:13:59.023Z,-11223.34
2022-10-13T06:17:05.423Z,-11236.84
2022-10-13T06:20:12.476Z,-11237.69
2022-10-13T06:23:18.673Z,-11237.28
2022-10-13T06:26:24.760Z,-11238.53
2022-10-13T06:29:33.528Z,-11224.19
2022-10-13T06:32:39.638Z,-11234.19
2022-10-13T06:35:45.876Z,-11247.41
2022-10-13T06:38:52.146Z,-11237.28
2022-10-13T06:41:58.586Z,-11248.25
2022-10-13T06:45:06.891Z,-11237.84
2022-10-13T06:48:13.292Z,-11241.34
2022-10-13T06:51:19.995Z,-11254.84
2022-10-13T06:54:25.941Z,-11246.56
2022-10-13T06:57:32.370Z,-11258.38
2022-10-13T07:00:42.935Z,-11251.34
2022-10-13T07:03:50.650Z,-11249.37
2022-10-13T07:06:56.749Z,-11240.06
2022-10-13T07:10:03.164Z,-11254.16
2022-10-13T07:13:09.883Z,-11237.28
2022-10-13T07:16:17.884Z,-11239.50
2022-10-13T07:19:24.078Z,-11247.97
2022-10-13T07:22:31.060Z,-11255.28
2022-10-13T07:25:37.472Z,-11269.63
2022-10-13T07:28:44.207Z,-11266.53
2022-10-13T07:31:52.281Z,-11263.72
2022-10-13T07:34:58.348Z,-11271.03
2022-10-13T07:38:04.768Z,-11280.59
2022-10-13T07:41:12.722Z,-11270.75
2022-10-13T07:44:18.911Z,-11269.06
2022-10-13T07:47:26.536Z,-11256.53
2022-10-13T07:50:33.115Z,-11257.09
2022-10-13T07:53:40.351Z,-11279.91
2022-10-13T07:56:46.695Z,-11276.94
2022-10-13T07:59:52.814Z,-11278.22
2022-10-13T08:03:00.454Z,-11287.63
2022-10-13T08:06:08.176Z,-11275.81
2022-10-13T08:09:14.535Z,-11277.22
2022-10-13T08:12:21.356Z,-11285.69
2022-10-13T08:15:28.176Z,-11294.41
2022-10-13T08:18:36.060Z,-11294.69
2022-10-13T08:21:59.654Z,-11286.66
2022-10-13T08:25:07.385Z,-11309.03
2022-10-13T08:28:20.115Z,-11319.87
2022-10-13T08:31:26.146Z,-11323.25
2022-10-13T08:34:34.221Z,-11323.69
2022-10-13T08:37:39.978Z,-11315.53
2022-10-13T08:40:48.686Z,-11323.13
2022-10-13T08:44:33.953Z,-11314.13
2022-10-13T08:47:41.091Z,-11306.94
2022-10-13T08:50:52.033Z,-11305.38
2022-10-13T08:53:58.578Z,-11305.53
2022-10-13T08:57:06.709Z,-11311.28
2022-10-13T09:00:15.298Z,-11315.53
2022-10-13T09:03:25.172Z,-11327.06
2022-10-13T09:06:37.923Z,-11315.38
2022-10-13T09:09:44.172Z,-11321.00
2022-10-13T09:12:51.728Z,-11335.78
2022-10-13T09:15:59.606Z,-11310.72
2022-10-13T09:19:22.479Z,-11343.13
2022-10-13T09:22:31.207Z,-11348.63
2022-10-13T09:25:42.077Z,-11370.16
2022-10-13T10:41:05.668Z,-11437.69
2022-10-13T10:44:14.540Z,-11448.25
2022-10-13T10:47:26.388Z,-11432.47
2022-10-13T10:50:35.369Z,-11458.69
2022-10-13T10:53:50.193Z,-11430.06
2022-10-13T10:57:03.876Z,-11428.94
2022-10-13T11:00:16.642Z,-11414.13
2022-10-13T11:03:36.578Z,-11423.59
2022-10-13T11:06:42.482Z,-11435.69
2022-10-13T11:10:21.351Z,-11411.19
2022-10-13T11:13:28.742Z,-11415.41
2022-10-13T11:16:37.154Z,-11426.25
2022-10-13T11:19:43.567Z,-11413.72
2022-10-13T11:23:28.320Z,-11408.50
2022-10-13T11:26:43.747Z,-11422.72
2022-10-13T11:29:57.239Z,-11408.78
2022-10-13T11:33:09.393Z,-11414.56
2022-10-13T11:36:49.744Z,-11423.44
2022-10-13T11:40:17.199Z,-11427.38
2022-10-13T11:43:37.100Z,-11419.06
2022-10-13T11:47:02.795Z,-11432.59
2022-10-13T11:50:20.048Z,-11433.88
2022-10-13T11:53:32.818Z,-11410.47
2022-10-13T11:56:48.765Z,-11410.34
2022-10-13T11:59:56.888Z,-11410.34
2022-10-13T12:03:04.933Z,-11426.53
2022-10-13T12:06:33.241Z,-11420.19
2022-10-13T12:09:50.810Z,-11431.19
2022-10-13T12:12:58.448Z,-11421.75
2022-10-13T12:16:06.680Z,-11417.50
2022-10-13T12:19:22.568Z,-11422.88
2022-10-13T12:22:29.464Z,-11427.25
2022-10-13T12:25:35.482Z,-11421.47
2022-10-13T12:28:52.353Z,-11415.25
2022-10-13T12:31:59.646Z,-11426.81
2022-10-13T12:35:19.582Z,-11420.34
2022-10-13T12:38:26.104Z,-11423.72
2022-10-13T12:41:35.703Z,-11425.97
2022-10-13T12:44:42.877Z,-11429.50
2022-10-13T12:47:51.903Z,-11426.53
2022-10-13T12:51:17.407Z,-11429.38
2022-10-13T12:54:28.101Z,-11438.25
2022-10-13T12:57:38.529Z,-11439.22
2022-10-13T13:00:45.062Z,-11432.03
2022-10-13T13:03:57.268Z,-11421.75
2022-10-13T13:07:06.907Z,-11422.03
2022-10-13T13:10:19.128Z,-11425.84
2022-10-13T13:13:26.195Z,-11419.63
2022-10-13T13:16:32.337Z,-11422.31
2022-10-13T13:19:39.717Z,-11420.91
2022-10-13T13:22:47.413Z,-11418.94
2022-10-13T13:26:02.543Z,-11407.22
2022-10-13T13:29:11.712Z,-11410.91
2022-10-13T13:32:20.517Z,-11404.56
2022-10-13T13:35:27.052Z,-11406.53
2022-10-13T13:38:34.799Z,-11407.38
2022-10-13T13:41:40.792Z,-11407.38
2022-10-13T13:44:47.350Z,-11404.84
2022-10-13T13:47:56.881Z,-11396.94
2022-10-13T13:51:06.888Z,-11403.44
2022-10-13T13:54:14.572Z,-11403.16
2022-10-13T13:57:21.798Z,-11400.75
2022-10-13T14:00:28.600Z,-11399.06
2022-10-13T14:03:34.721Z,-11399.06
2022-10-13T14:06:40.924Z,-11404.28
2022-10-13T14:09:48.899Z,-11398.78
2022-10-13T14:12:55.758Z,-11397.50
2022-10-13T14:16:03.544Z,-11396.25
2022-10-13T14:19:10.395Z,-11401.72
2022-10-13T14:22:16.499Z,-11405.81
2022-10-13T14:25:24.103Z,-11396.53
2022-10-13T14:28:30.245Z,-11396.94
2022-10-13T14:31:36.615Z,-11394.81
2022-10-13T14:34:43.156Z,-11384.97
2022-10-13T14:37:49.498Z,-11385.38
2022-10-13T14:41:01.541Z,-11379.03
2022-10-13T14:44:07.541Z,-11372.28
2022-10-13T14:47:13.763Z,-11381.16
2022-10-13T14:50:20.214Z,-11380.59
2022-10-13T14:53:26.911Z,-11382.00
2022-10-13T14:56:34.425Z,-11382.16
2022-10-13T14:59:40.568Z,-11375.81
2022-10-13T15:02:46.682Z,-11371.44
2022-10-13T15:05:53.021Z,-11368.47
2022-10-13T15:08:59.690Z,-11363.97
2022-10-13T15:12:07.891Z,-11361.28
2022-10-13T15:15:14.424Z,-11349.88
2022-10-13T15:18:20.571Z,-11351.28
2022-10-13T15:21:27.249Z,-11342.00
2022-10-13T15:24:33.448Z,-11338.63
2022-10-13T15:27:42.209Z,-11343.25
2022-10-13T15:30:49.112Z,-11333.84
2022-10-13T15:33:55.513Z,-11329.47
2022-10-13T15:37:02.100Z,-11329.88
2022-10-13T15:40:09.874Z,-11330.16
2022-10-13T15:43:18.949Z,-11335.50
2022-10-13T15:46:26.415Z,-11334.81
2022-10-13T15:49:37.449Z,-11332.13
2022-10-13T15:52:43.761Z,-11329.19
2022-10-13T15:55:50.206Z,-11322.56
2022-10-13T15:58:57.709Z,-11321.72
2022-10-13T16:02:03.975Z,-11324.53
2022-10-13T16:05:13.278Z,-11322.69
2022-10-13T16:08:19.788Z,-11319.87
2022-10-13T16:11:26.716Z,-11320.59
2022-10-13T16:14:34.706Z,-11319.75
2022-10-13T16:17:41.306Z,-11314.41
2022-10-13T16:20:47.581Z,-11313.41
2022-10-13T16:23:54.113Z,-11311.28
2022-10-13T16:27:00.260Z,-11313.00
2022-10-13T16:30:09.426Z,-11311.72
2022-10-13T16:33:15.539Z,-11317.06
2022-10-13T16:36:22.893Z,-11309.03
2022-10-13T16:39:29.097Z,-11308.19
2022-10-13T16:42:35.517Z,-11307.50
2022-10-13T16:45:59.133Z,-11311.28
2022-10-13T16:49:06.498Z,-11316.38
2022-10-13T16:52:12.537Z,-11312.13
2022-10-13T16:55:18.916Z,-11308.19
2022-10-13T16:58:24.956Z,-11309.59
2022-10-13T17:01:34.075Z,-11308.63
2022-10-13T17:04:40.054Z,-11305.09
2022-10-13T17:07:46.403Z,-11308.47
2022-10-13T17:10:57.954Z,-11301.88
2022-10-13T17:14:05.667Z,-11303.84
2022-10-13T17:17:12.976Z,-11304.81
2022-10-13T17:20:19.450Z,-11304.81
2022-10-13T17:23:26.373Z,-11307.06
2022-10-13T17:26:32.576Z,-11305.94
2022-10-13T17:29:38.663Z,-11302.84
2022-10-13T17:32:46.239Z,-11301.72
2022-10-13T17:35:52.145Z,-11302.16
2022-10-13T17:39:03.059Z,-11299.63
2022-10-13T17:42:09.067Z,-11300.88
2022-10-13T17:45:15.099Z,-11299.91
2022-10-13T17:48:23.310Z,-11301.44
2022-10-13T17:51:29.890Z,-11303.69
2022-10-13T17:54:36.272Z,-11298.34
2022-10-13T17:57:42.676Z,-11297.22
2022-10-13T18:01:11.845Z,-11302.28
2022-10-13T18:04:20.018Z,-11300.03
2022-10-13T18:07:25.884Z,-11296.66
2022-10-13T18:10:50.859Z,-11293.00
2022-10-13T18:14:00.332Z,-11297.06
2022-10-13T18:17:06.319Z,-11297.06
2022-10-13T18:20:14.030Z,-11299.47
2022-10-13T18:23:19.804Z,-11292.56
2022-10-13T18:26:27.233Z,-11289.47
2022-10-13T18:29:33.502Z,-11284.84
2022-10-13T18:32:39.599Z,-11282.84
2022-10-13T18:35:46.963Z,-11282.56
2022-10-13T18:38:53.886Z,-11285.81
2022-10-13T18:42:00.018Z,-11287.50
2022-10-13T18:45:06.275Z,-11287.22
2022-10-13T18:48:12.852Z,-11292.16
2022-10-13T18:51:21.233Z,-11295.81
2022-10-13T18:54:29.062Z,-11297.78
2022-10-13T18:57:38.090Z,-11299.19
2022-10-13T19:00:44.407Z,-11297.50
2022-10-13T19:03:52.190Z,-11297.78
2022-10-13T19:06:59.742Z,-11298.34
2022-10-13T19:10:06.563Z,-11292.56
2022-10-13T19:13:12.657Z,-11289.06
2022-10-13T19:16:20.880Z,-11290.75
2022-10-13T19:19:27.257Z,-11293.13
2022-10-13T19:22:35.062Z,-11291.59
2022-10-13T19:25:43.066Z,-11290.47
2022-10-13T19:28:49.306Z,-11282.44
2022-10-13T19:31:55.595Z,-11283.69
2022-10-13T19:35:01.892Z,-11289.19
2022-10-13T19:38:10.575Z,-11278.22
2022-10-13T19:41:16.827Z,-11278.91
2022-10-13T19:44:24.576Z,-11282.28
2022-10-13T19:47:30.825Z,-11285.69
2022-10-13T19:50:37.051Z,-11285.41
2022-10-13T19:53:45.234Z,-11279.34
2022-10-13T19:56:52.056Z,-11290.75
2022-10-13T19:59:58.366Z,-11287.91
2022-10-13T20:03:05.364Z,-11280.59
2022-10-13T20:06:11.515Z,-11278.50
2022-10-13T20:09:19.546Z,-11277.38
2022-10-13T20:12:26.031Z,-11286.22
2022-10-13T20:15:32.255Z,-11279.19
2022-10-13T20:18:38.989Z,-11280.88
2022-10-13T20:21:45.031Z,-11281.03
2022-10-13T20:24:52.669Z,-11285.69
2022-10-13T20:27:58.506Z,-11289.06
2022-10-13T20:31:06.145Z,-11286.50
2022-10-13T20:34:12.668Z,-11287.22
2022-10-13T20:37:18.990Z,-11291.31
2022-10-13T20:40:26.618Z,-11287.34
2022-10-13T20:43:32.891Z,-11288.78
2022-10-13T20:46:39.467Z,-11285.25
2022-10-13T20:49:45.583Z,-11284.00
2022-10-13T20:52:51.939Z,-11278.06
2022-10-13T20:56:00.839Z,-11284.00
2022-10-13T20:59:08.828Z,-11277.50
2022-10-13T21:02:16.749Z,-11274.28
2022-10-13T21:05:22.849Z,-11277.38
2022-10-13T21:08:29.252Z,-11266.25
2022-10-13T21:11:38.191Z,-11268.50
2022-10-13T21:14:44.311Z,-11268.78
2022-10-13T21:17:52.213Z,-11274.00
2022-10-13T21:21:03.845Z,-11277.78
2022-10-13T21:24:11.527Z,-11278.34
2022-10-13T21:27:19.728Z,-11268.94
2022-10-13T21:30:26.675Z,-11263.72
2022-10-13T21:33:35.518Z,-11270.19
2022-10-13T21:36:44.571Z,-11274.97
2022-10-13T21:39:50.922Z,-11261.59
2022-10-13T21:42:58.332Z,-11263.44
2022-10-13T21:46:16.118Z,-11274.28
2022-10-13T21:49:22.118Z,-11274.00
2022-10-13T21:52:28.599Z,-11269.50
2022-10-13T21:55:34.527Z,-11269.06
2022-10-13T21:58:42.318Z,-11272.59
2022-10-13T22:01:48.340Z,-11271.75
2022-10-13T22:04:54.780Z,-11273.28
2022-10-13T22:08:01.476Z,-11273.28
2022-10-13T22:11:09.816Z,-11264.28
2022-10-13T22:14:17.296Z,-11268.09
2022-10-13T22:17:24.107Z,-11270.75
2022-10-13T22:20:30.127Z,-11268.66
2022-10-13T22:23:36.514Z,-11259.78
2022-10-13T22:26:44.295Z,-11266.53
2022-10-13T22:29:52.024Z,-11269.50
2022-10-13T22:32:58.291Z,-11273.28
2022-10-13T22:36:08.581Z,-11274.69
2022-10-13T22:39:15.591Z,-11266.53
2022-10-13T22:42:22.357Z,-11266.69
2022-10-13T22:45:29.626Z,-11271.03
2022-10-13T22:48:40.353Z,-11272.03
2022-10-13T22:51:46.684Z,-11275.97
2022-10-13T22:54:52.900Z,-11274.56
2022-10-13T22:57:59.169Z,-11276.09
2022-10-13T23:01:11.413Z,-11270.19
2022-10-13T23:04:17.349Z,-11260.34
2022-10-13T23:07:23.748Z,-11250.22
2022-10-13T23:10:30.070Z,-11249.78
2022-10-13T23:13:36.622Z,-11254.72
2022-10-13T23:16:44.157Z,-11260.47
2022-10-13T23:19:50.198Z,-11256.13
2022-10-13T23:22:56.477Z,-11254.44
2022-10-13T23:26:04.463Z,-11259.63
2022-10-13T23:29:11.286Z,-11269.22
2022-10-13T23:32:18.784Z,-11273.44
2022-10-13T23:35:25.059Z,-11274.56
2022-10-13T23:38:33.029Z,-11260.34
2022-10-13T23:41:39.518Z,-11258.38
2022-10-13T23:44:45.602Z,-11264.00
2022-10-13T23:47:53.336Z,-11266.41
2022-10-13T23:50:59.780Z,-11261.47
2022-10-13T23:54:06.051Z,-11264.00
2022-10-13T23:57:12.168Z,-11264.28
